Historyczne dane pomiarowe

Dodano dane terminowe – wersja testowa.

Dane z okresu 1951-2018

Wersja bazy: 1.27 [2018-11-28, lista zmian], aktualizacja planowana na 2018-12-07

Dane meteo z obszaru Polski uzyskane na podstawie danych udostępnionych przez Instytut Meteorologii i Gospodarki Wodnej – Państwowy Instytut Badawczy.

 

Wybierz Datę:    

       

TemperaturaWilgotnośćWiatrCiśnienieOpadyŚniegCzas trwania zjawisk
 Stacja t tx tn tng RH VA  wxwx mslp ppp RRR   cm mm wxwxwxwxwxwxwx
1960-11-08 5.4 6.2 4.4- 94.8- 8.0 3.7---- 1.0------------
1960-11-09 4.6 7.1 2.4- 86.8- 7.7 1.3---- 0.1------------
1960-11-10 7.0 10.4 4.4- 81.8- 7.7 2.0---- 0.0------------
1960-11-11 7.1 7.7 5.4- 93.3- 8.0 0.0---- 0.1------------
1960-11-12 6.6 12.1 3.9- 88.0- 7.7 2.3---- 0.0------------
1960-11-13 9.9 14.6 3.7- 70.5- 7.0 3.0---- 8.2------------
1960-11-14 7.4 10.1 6.9- 94.0- 8.0 2.0---- 14.6------------
1960-11-15 5.8 7.1 5.4- 95.5- 8.0 1.0---- 1.5------------
1960-11-16 6.8 8.6 5.4- 92.0- 8.0 0.0---- 0.0------------
1960-11-17 4.6 7.1 3.8- 95.0- 8.0 6.3---- 0.7------------
1960-11-18 5.0 7.1 1.9- 85.3- 6.7 1.0---- 0.4------------
1960-11-19 5.2 7.7 1.9- 79.5- 6.7 2.0---- 0.0------------
1960-11-20 4.4 5.6 2.9- 87.0- 8.0 7.0---- 1.2------------
1960-11-21 0.3 5.1 -2.1- 94.5- 8.0 1.0---- 0.0------------
1960-11-22 2.5 5.1 -3.1- 80.3- 7.3 3.7---- 0.0------------
1960-11-23 3.4 10.1 0.4- 88.3- 5.7 0.0---- 0.0------------
1960-11-24 1.7 5.6 -1.0- 92.3- 7.7 0.0---- 0.0------------
1960-11-25 6.4 9.1 0.4- 82.5- 8.0 1.0---- 0.0------------
1960-11-26 6.7 7.8 5.4- 81.0- 7.0 8.0---- 0.5------------
1960-11-27 7.0 7.7 5.9- 84.0- 7.3 5.0---- 0.4------------
1960-11-28 6.3 9.6 4.9- 87.0- 7.3 7.0---- 4.3------------
1960-11-29 1.8 5.8 0.9- 93.8- 8.0 1.0---- 5.0------------
1960-11-30 4.0 5.7 1.4- 76.5- 7.0 9.7---- 5.2------------
1960-12-01 5.6 7.1 2.9- 78.5- 4.0 2.7---- 0.0------------
1960-12-02 7.3 10.7 5.4- 65.8- 0.7 4.3---- 0.0------------
1960-12-03 5.0 8.6 0.4- 71.0- 5.0 2.7---- 0.0------------
1960-12-04 5.5 7.1 1.4- 70.0- 7.0 17.3---- 0.0------------
1960-12-05 7.6 9.6 6.4- 82.3- 5.7 6.3---- 0.0------------
1960-12-06 10.0 11.9 6.9- 70.8- 7.3 5.0---- 0.0------------
1960-12-07 7.6 14.7 6.4- 76.8- 3.7 5.0---- 0.0------------
157.4 ms

 

Źródłem pochodzenia danych jest Instytut Meteorologii i Gospodarki Wodnej – Państwowy Instytut Badawczy. Dane Instytutu Meteorologii i Gospodarki Wodnej – Państwowego Instytutu Badawczego zostały przetworzone.

Dane źródłowe można odnaleźć na stronie https://dane.imgw.pl